sensor_id;sensor_type;location;lat;lon;timestamp;temperature;humidity
8896;DHT22;4484;48.928;10.066;2023-07-31T00:01:43;13.80;99.90
8896;DHT22;4484;48.928;10.066;2023-07-31T00:04:10;13.80;99.90
8896;DHT22;4484;48.928;10.066;2023-07-31T00:06:37;13.80;99.90
8896;DHT22;4484;48.928;10.066;2023-07-31T00:09:04;13.90;99.90
8896;DHT22;4484;48.928;10.066;2023-07-31T00:11:31;13.90;99.90
8896;DHT22;4484;48.928;10.066;2023-07-31T00:13:58;13.90;99.90
8896;DHT22;4484;48.928;10.066;2023-07-31T00:16:25;13.90;99.90
8896;DHT22;4484;48.928;10.066;2023-07-31T00:18:52;13.80;99.90
8896;DHT22;4484;48.928;10.066;2023-07-31T00:21:19;13.90;99.90
8896;DHT22;4484;48.928;10.066;2023-07-31T00:23:46;13.80;99.90
8896;DHT22;4484;48.928;10.066;2023-07-31T00:26:12;13.80;99.90
8896;DHT22;4484;48.928;10.066;2023-07-31T00:28:39;13.70;99.90
8896;DHT22;4484;48.928;10.066;2023-07-31T00:31:06;13.70;99.90
8896;DHT22;4484;48.928;10.066;2023-07-31T00:33:35;13.60;99.90
8896;DHT22;4484;48.928;10.066;2023-07-31T00:36:03;13.60;99.90
8896;DHT22;4484;48.928;10.066;2023-07-31T00:38:29;13.60;99.90
8896;DHT22;4484;48.928;10.066;2023-07-31T00:40:56;13.60;99.90
8896;DHT22;4484;48.928;10.066;2023-07-31T00:43:24;13.60;99.90
8896;DHT22;4484;48.928;10.066;2023-07-31T00:45:51;13.50;99.90
8896;DHT22;4484;48.928;10.066;2023-07-31T00:48:18;13.50;99.90
8896;DHT22;4484;48.928;10.066;2023-07-31T00:50:45;13.50;99.90
8896;DHT22;4484;48.928;10.066;2023-07-31T00:53:13;13.40;99.90
8896;DHT22;4484;48.928;10.066;2023-07-31T00:55:40;13.40;99.90
8896;DHT22;4484;48.928;10.066;2023-07-31T00:58:07;13.50;99.90
8896;DHT22;4484;48.928;10.066;2023-07-31T01:00:33;13.40;99.90
8896;DHT22;4484;48.928;10.066;2023-07-31T01:03:00;13.40;99.90
8896;DHT22;4484;48.928;10.066;2023-07-31T01:05:55;13.40;99.90
8896;DHT22;4484;48.928;10.066;2023-07-31T01:11:19;13.30;99.90
8896;DHT22;4484;48.928;10.066;2023-07-31T01:13:48;13.20;99.90
8896;DHT22;4484;48.928;10.066;2023-07-31T01:16:15;13.30;99.90
8896;DHT22;4484;48.928;10.066;2023-07-31T01:18:42;13.20;99.90
8896;DHT22;4484;48.928;10.066;2023-07-31T01:24:21;13.10;99.90
8896;DHT22;4484;48.928;10.066;2023-07-31T01:27:12;13.10;99.90
8896;DHT22;4484;48.928;10.066;2023-07-31T01:32:13;13.00;99.90
8896;DHT22;4484;48.928;10.066;2023-07-31T01:34:41;13.00;99.90
8896;DHT22;4484;48.928;10.066;2023-07-31T01:37:08;13.00;99.90
8896;DHT22;4484;48.928;10.066;2023-07-31T01:39:35;12.90;99.90
8896;DHT22;4484;48.928;10.066;2023-07-31T01:42:03;12.90;99.90
8896;DHT22;4484;48.928;10.066;2023-07-31T01:44:30;12.80;99.90
8896;DHT22;4484;48.928;10.066;2023-07-31T01:46:57;12.80;99.90
8896;DHT22;4484;48.928;10.066;2023-07-31T01:49:26;12.70;99.90
8896;DHT22;4484;48.928;10.066;2023-07-31T01:51:53;12.70;99.90
8896;DHT22;4484;48.928;10.066;2023-07-31T01:54:21;12.60;99.90
8896;DHT22;4484;48.928;10.066;2023-07-31T01:56:48;12.60;99.90
8896;DHT22;4484;48.928;10.066;2023-07-31T01:59:15;12.50;99.90
8896;DHT22;4484;48.928;10.066;2023-07-31T02:01:42;12.50;99.90
8896;DHT22;4484;48.928;10.066;2023-07-31T02:04:08;12.40;99.90
8896;DHT22;4484;48.928;10.066;2023-07-31T02:06:36;12.40;99.90
8896;DHT22;4484;48.928;10.066;2023-07-31T02:09:05;12.30;99.90
8896;DHT22;4484;48.928;10.066;2023-07-31T02:11:32;12.30;99.90
8896;DHT22;4484;48.928;10.066;2023-07-31T02:13:59;12.20;99.90
8896;DHT22;4484;48.928;10.066;2023-07-31T02:16:26;12.20;99.90
8896;DHT22;4484;48.928;10.066;2023-07-31T02:18:52;12.10;99.90
8896;DHT22;4484;48.928;10.066;2023-07-31T02:21:19;12.10;99.90
8896;DHT22;4484;48.928;10.066;2023-07-31T02:23:46;12.10;99.90
8896;DHT22;4484;48.928;10.066;2023-07-31T02:26:13;12.10;99.90
8896;DHT22;4484;48.928;10.066;2023-07-31T02:28:40;12.20;99.90
8896;DHT22;4484;48.928;10.066;2023-07-31T02:31:11;12.20;99.90
8896;DHT22;4484;48.928;10.066;2023-07-31T02:33:39;12.20;99.90
8896;DHT22;4484;48.928;10.066;2023-07-31T02:36:06;12.20;99.90
8896;DHT22;4484;48.928;10.066;2023-07-31T02:38:32;12.30;99.90
8896;DHT22;4484;48.928;10.066;2023-07-31T02:40:59;12.30;99.90
8896;DHT22;4484;48.928;10.066;2023-07-31T02:43:26;12.30;99.90
8896;DHT22;4484;48.928;10.066;2023-07-31T02:45:53;12.30;99.90
8896;DHT22;4484;48.928;10.066;2023-07-31T02:48:20;12.30;99.90
8896;DHT22;4484;48.928;10.066;2023-07-31T02:50:48;12.30;99.90
8896;DHT22;4484;48.928;10.066;2023-07-31T02:53:14;12.30;99.90
8896;DHT22;4484;48.928;10.066;2023-07-31T02:55:41;12.30;99.90
8896;DHT22;4484;48.928;10.066;2023-07-31T02:58:08;12.30;99.90
8896;DHT22;4484;48.928;10.066;2023-07-31T03:00:35;12.20;99.90
8896;DHT22;4484;48.928;10.066;2023-07-31T03:03:02;12.20;99.90
8896;DHT22;4484;48.928;10.066;2023-07-31T03:05:29;12.20;99.90
8896;DHT22;4484;48.928;10.066;2023-07-31T03:07:56;12.10;99.90
8896;DHT22;4484;48.928;10.066;2023-07-31T03:10:23;12.10;99.90
8896;DHT22;4484;48.928;10.066;2023-07-31T03:12:50;12.10;99.90
8896;DHT22;4484;48.928;10.066;2023-07-31T03:15:16;12.00;99.90
8896;DHT22;4484;48.928;10.066;2023-07-31T03:17:43;12.00;99.90
8896;DHT22;4484;48.928;10.066;2023-07-31T03:20:10;11.90;99.90
8896;DHT22;4484;48.928;10.066;2023-07-31T03:22:37;12.00;99.90
8896;DHT22;4484;48.928;10.066;2023-07-31T03:25:04;11.90;99.90
8896;DHT22;4484;48.928;10.066;2023-07-31T03:27:31;11.90;99.90
8896;DHT22;4484;48.928;10.066;2023-07-31T03:29:59;11.90;99.90
8896;DHT22;4484;48.928;10.066;2023-07-31T03:32:29;11.90;99.90
8896;DHT22;4484;48.928;10.066;2023-07-31T03:34:56;12.00;99.90
8896;DHT22;4484;48.928;10.066;2023-07-31T03:37:22;12.00;99.90
8896;DHT22;4484;48.928;10.066;2023-07-31T03:39:49;12.00;99.90
8896;DHT22;4484;48.928;10.066;2023-07-31T03:42:16;12.00;99.90
8896;DHT22;4484;48.928;10.066;2023-07-31T03:44:43;12.00;99.90
8896;DHT22;4484;48.928;10.066;2023-07-31T03:47:10;12.00;99.90
8896;DHT22;4484;48.928;10.066;2023-07-31T03:49:37;12.00;99.90
8896;DHT22;4484;48.928;10.066;2023-07-31T03:52:04;12.00;99.90
8896;DHT22;4484;48.928;10.066;2023-07-31T03:54:30;12.00;99.90
8896;DHT22;4484;48.928;10.066;2023-07-31T03:56:57;12.10;99.90
8896;DHT22;4484;48.928;10.066;2023-07-31T03:59:24;12.10;99.90
8896;DHT22;4484;48.928;10.066;2023-07-31T04:01:51;12.00;99.90
8896;DHT22;4484;48.928;10.066;2023-07-31T04:04:18;12.00;99.90
8896;DHT22;4484;48.928;10.066;2023-07-31T04:06:44;12.10;99.90
8896;DHT22;4484;48.928;10.066;2023-07-31T04:09:11;12.00;99.90
8896;DHT22;4484;48.928;10.066;2023-07-31T04:11:38;12.00;99.90
8896;DHT22;4484;48.928;10.066;2023-07-31T04:14:05;12.00;99.90
8896;DHT22;4484;48.928;10.066;2023-07-31T04:16:32;12.00;99.90
8896;DHT22;4484;48.928;10.066;2023-07-31T04:18:59;12.00;99.90
8896;DHT22;4484;48.928;10.066;2023-07-31T04:21:26;12.10;99.90
8896;DHT22;4484;48.928;10.066;2023-07-31T04:23:53;12.10;99.90
8896;DHT22;4484;48.928;10.066;2023-07-31T04:26:22;12.10;99.90
8896;DHT22;4484;48.928;10.066;2023-07-31T04:28:49;12.10;99.90
8896;DHT22;4484;48.928;10.066;2023-07-31T04:31:16;12.10;99.90
8896;DHT22;4484;48.928;10.066;2023-07-31T04:33:43;12.20;99.90
8896;DHT22;4484;48.928;10.066;2023-07-31T04:36:10;12.30;99.90
8896;DHT22;4484;48.928;10.066;2023-07-31T04:38:36;12.40;99.90
8896;DHT22;4484;48.928;10.066;2023-07-31T04:41:03;12.40;99.90
8896;DHT22;4484;48.928;10.066;2023-07-31T04:43:32;12.50;99.90
8896;DHT22;4484;48.928;10.066;2023-07-31T04:45:59;12.60;99.90
8896;DHT22;4484;48.928;10.066;2023-07-31T04:48:25;12.70;99.90
8896;DHT22;4484;48.928;10.066;2023-07-31T04:50:52;12.80;99.90
8896;DHT22;4484;48.928;10.066;2023-07-31T04:53:19;12.90;99.90
8896;DHT22;4484;48.928;10.066;2023-07-31T04:55:46;13.00;99.90
8896;DHT22;4484;48.928;10.066;2023-07-31T04:58:13;13.10;99.90
8896;DHT22;4484;48.928;10.066;2023-07-31T05:00:39;13.10;99.90
8896;DHT22;4484;48.928;10.066;2023-07-31T05:03:06;13.20;99.90
8896;DHT22;4484;48.928;10.066;2023-07-31T05:05:34;13.30;99.90
8896;DHT22;4484;48.928;10.066;2023-07-31T05:08:01;13.30;99.90
8896;DHT22;4484;48.928;10.066;2023-07-31T05:10:27;13.30;99.90
8896;DHT22;4484;48.928;10.066;2023-07-31T05:12:54;13.40;99.90
8896;DHT22;4484;48.928;10.066;2023-07-31T05:15:21;13.40;99.90
8896;DHT22;4484;48.928;10.066;2023-07-31T05:17:48;13.50;99.90
8896;DHT22;4484;48.928;10.066;2023-07-31T05:20:15;13.50;99.90
8896;DHT22;4484;48.928;10.066;2023-07-31T05:22:41;13.50;99.90
8896;DHT22;4484;48.928;10.066;2023-07-31T05:25:08;13.50;99.90
8896;DHT22;4484;48.928;10.066;2023-07-31T05:27:35;13.60;99.90
8896;DHT22;4484;48.928;10.066;2023-07-31T05:30:02;13.60;99.90
8896;DHT22;4484;48.928;10.066;2023-07-31T05:32:29;13.60;99.90
8896;DHT22;4484;48.928;10.066;2023-07-31T05:34:56;13.70;99.90
8896;DHT22;4484;48.928;10.066;2023-07-31T05:37:23;13.70;99.90
8896;DHT22;4484;48.928;10.066;2023-07-31T05:39:50;13.70;99.90
8896;DHT22;4484;48.928;10.066;2023-07-31T05:42:18;13.70;99.90
8896;DHT22;4484;48.928;10.066;2023-07-31T05:44:45;13.80;99.90
8896;DHT22;4484;48.928;10.066;2023-07-31T05:47:12;13.90;99.90
8896;DHT22;4484;48.928;10.066;2023-07-31T05:49:39;13.90;99.90
8896;DHT22;4484;48.928;10.066;2023-07-31T05:52:06;14.00;99.90
8896;DHT22;4484;48.928;10.066;2023-07-31T05:54:33;14.00;99.90
8896;DHT22;4484;48.928;10.066;2023-07-31T05:57:00;14.00;99.90
8896;DHT22;4484;48.928;10.066;2023-07-31T05:59:27;14.10;99.90
8896;DHT22;4484;48.928;10.066;2023-07-31T06:01:54;14.10;99.90
8896;DHT22;4484;48.928;10.066;2023-07-31T06:04:21;14.10;99.90
8896;DHT22;4484;48.928;10.066;2023-07-31T06:06:51;14.20;99.90
8896;DHT22;4484;48.928;10.066;2023-07-31T06:09:18;14.20;99.90
8896;DHT22;4484;48.928;10.066;2023-07-31T06:11:45;14.30;99.90
8896;DHT22;4484;48.928;10.066;2023-07-31T06:14:12;14.30;99.90
8896;DHT22;4484;48.928;10.066;2023-07-31T06:16:38;14.30;99.90
8896;DHT22;4484;48.928;10.066;2023-07-31T06:19:06;14.40;99.90
8896;DHT22;4484;48.928;10.066;2023-07-31T06:21:33;14.40;99.90
8896;DHT22;4484;48.928;10.066;2023-07-31T06:24:00;14.40;99.90
8896;DHT22;4484;48.928;10.066;2023-07-31T06:26:27;14.40;99.90
8896;DHT22;4484;48.928;10.066;2023-07-31T06:28:54;14.50;99.90
8896;DHT22;4484;48.928;10.066;2023-07-31T06:31:21;14.50;99.90
8896;DHT22;4484;48.928;10.066;2023-07-31T06:33:51;14.50;99.90
8896;DHT22;4484;48.928;10.066;2023-07-31T06:36:18;14.50;99.90
8896;DHT22;4484;48.928;10.066;2023-07-31T06:38:45;14.70;99.90
8896;DHT22;4484;48.928;10.066;2023-07-31T06:41:12;15.00;99.90
8896;DHT22;4484;48.928;10.066;2023-07-31T06:43:39;15.30;99.90
8896;DHT22;4484;48.928;10.066;2023-07-31T06:46:06;15.60;99.90
8896;DHT22;4484;48.928;10.066;2023-07-31T06:48:34;15.90;99.90
8896;DHT22;4484;48.928;10.066;2023-07-31T06:51:01;16.30;99.90
8896;DHT22;4484;48.928;10.066;2023-07-31T06:53:28;16.60;99.90
8896;DHT22;4484;48.928;10.066;2023-07-31T06:55:55;16.80;99.90
8896;DHT22;4484;48.928;10.066;2023-07-31T06:58:22;17.00;99.90
8896;DHT22;4484;48.928;10.066;2023-07-31T07:00:49;17.20;99.90
8896;DHT22;4484;48.928;10.066;2023-07-31T07:03:18;17.40;99.90
8896;DHT22;4484;48.928;10.066;2023-07-31T07:05:45;17.60;99.90
8896;DHT22;4484;48.928;10.066;2023-07-31T07:08:12;17.90;99.90
8896;DHT22;4484;48.928;10.066;2023-07-31T07:10:39;18.00;99.90
8896;DHT22;4484;48.928;10.066;2023-07-31T07:13:06;18.20;99.90
8896;DHT22;4484;48.928;10.066;2023-07-31T07:15:33;18.50;99.90
8896;DHT22;4484;48.928;10.066;2023-07-31T07:17:59;18.80;99.90
8896;DHT22;4484;48.928;10.066;2023-07-31T07:20:26;19.00;99.90
8896;DHT22;4484;48.928;10.066;2023-07-31T07:22:53;19.10;99.90
8896;DHT22;4484;48.928;10.066;2023-07-31T07:25:20;19.00;99.90
8896;DHT22;4484;48.928;10.066;2023-07-31T07:27:47;18.90;99.90
8896;DHT22;4484;48.928;10.066;2023-07-31T07:30:14;19.00;99.90
8896;DHT22;4484;48.928;10.066;2023-07-31T07:32:42;19.10;99.90
8896;DHT22;4484;48.928;10.066;2023-07-31T07:35:09;19.00;99.90
8896;DHT22;4484;48.928;10.066;2023-07-31T07:37:35;19.00;99.90
8896;DHT22;4484;48.928;10.066;2023-07-31T07:40:02;18.90;99.90
8896;DHT22;4484;48.928;10.066;2023-07-31T07:42:29;18.80;99.90
8896;DHT22;4484;48.928;10.066;2023-07-31T07:44:56;18.90;99.90
8896;DHT22;4484;48.928;10.066;2023-07-31T07:47:23;19.10;99.90
8896;DHT22;4484;48.928;10.066;2023-07-31T07:49:49;19.20;99.90
8896;DHT22;4484;48.928;10.066;2023-07-31T07:52:19;19.20;99.90
8896;DHT22;4484;48.928;10.066;2023-07-31T07:54:46;19.20;99.90
8896;DHT22;4484;48.928;10.066;2023-07-31T07:57:12;19.30;99.90
8896;DHT22;4484;48.928;10.066;2023-07-31T07:59:40;19.20;99.90
8896;DHT22;4484;48.928;10.066;2023-07-31T08:02:07;19.20;99.90
8896;DHT22;4484;48.928;10.066;2023-07-31T08:04:34;19.10;99.90
8896;DHT22;4484;48.928;10.066;2023-07-31T08:07:01;19.00;99.90
8896;DHT22;4484;48.928;10.066;2023-07-31T08:09:28;19.10;99.90
8896;DHT22;4484;48.928;10.066;2023-07-31T08:11:56;19.10;99.90
8896;DHT22;4484;48.928;10.066;2023-07-31T08:14:28;19.30;99.90
8896;DHT22;4484;48.928;10.066;2023-07-31T08:16:58;19.60;99.90
8896;DHT22;4484;48.928;10.066;2023-07-31T08:19:25;19.70;99.90
8896;DHT22;4484;48.928;10.066;2023-07-31T08:21:52;19.90;99.90
8896;DHT22;4484;48.928;10.066;2023-07-31T08:24:23;20.20;99.90
8896;DHT22;4484;48.928;10.066;2023-07-31T08:26:50;20.40;99.90
8896;DHT22;4484;48.928;10.066;2023-07-31T08:29:17;20.60;99.90
8896;DHT22;4484;48.928;10.066;2023-07-31T08:31:44;20.90;99.90
8896;DHT22;4484;48.928;10.066;2023-07-31T08:34:11;21.40;99.90
8896;DHT22;4484;48.928;10.066;2023-07-31T08:36:37;21.80;99.90
8896;DHT22;4484;48.928;10.066;2023-07-31T08:39:05;22.10;99.90
8896;DHT22;4484;48.928;10.066;2023-07-31T08:41:40;22.40;99.90
8896;DHT22;4484;48.928;10.066;2023-07-31T08:44:07;22.70;99.90
8896;DHT22;4484;48.928;10.066;2023-07-31T08:46:34;22.80;99.90
8896;DHT22;4484;48.928;10.066;2023-07-31T08:49:04;23.00;99.90
8896;DHT22;4484;48.928;10.066;2023-07-31T08:51:34;23.10;99.90
8896;DHT22;4484;48.928;10.066;2023-07-31T08:54:02;23.10;99.90
8896;DHT22;4484;48.928;10.066;2023-07-31T08:56:32;22.90;99.90
8896;DHT22;4484;48.928;10.066;2023-07-31T08:59:01;22.90;99.90
8896;DHT22;4484;48.928;10.066;2023-07-31T09:01:30;23.00;99.90
8896;DHT22;4484;48.928;10.066;2023-07-31T09:03:59;23.30;99.90
8896;DHT22;4484;48.928;10.066;2023-07-31T09:06:28;23.20;99.90
8896;DHT22;4484;48.928;10.066;2023-07-31T09:08:56;22.90;99.90
8896;DHT22;4484;48.928;10.066;2023-07-31T09:11:24;22.70;99.90
8896;DHT22;4484;48.928;10.066;2023-07-31T09:13:52;22.70;99.90
8896;DHT22;4484;48.928;10.066;2023-07-31T09:16:29;22.80;99.90
8896;DHT22;4484;48.928;10.066;2023-07-31T09:18:58;22.90;99.90
8896;DHT22;4484;48.928;10.066;2023-07-31T09:21:28;23.10;99.90
8896;DHT22;4484;48.928;10.066;2023-07-31T09:23:55;23.50;99.90
8896;DHT22;4484;48.928;10.066;2023-07-31T09:26:33;23.90;99.90
8896;DHT22;4484;48.928;10.066;2023-07-31T09:29:03;24.20;99.90
8896;DHT22;4484;48.928;10.066;2023-07-31T09:31:39;24.20;99.90
8896;DHT22;4484;48.928;10.066;2023-07-31T09:34:07;23.80;99.90
8896;DHT22;4484;48.928;10.066;2023-07-31T09:36:45;24.00;99.90
8896;DHT22;4484;48.928;10.066;2023-07-31T09:39:13;24.20;99.90
8896;DHT22;4484;48.928;10.066;2023-07-31T09:41:44;24.50;99.90
8896;DHT22;4484;48.928;10.066;2023-07-31T09:44:12;24.40;99.90
8896;DHT22;4484;48.928;10.066;2023-07-31T09:46:42;24.40;99.90
8896;DHT22;4484;48.928;10.066;2023-07-31T09:49:11;24.50;99.90
8896;DHT22;4484;48.928;10.066;2023-07-31T09:51:39;24.60;98.20
8896;DHT22;4484;48.928;10.066;2023-07-31T09:54:13;24.50;98.20
8896;DHT22;4484;48.928;10.066;2023-07-31T09:56:48;24.30;99.40
8896;DHT22;4484;48.928;10.066;2023-07-31T09:59:17;24.00;98.30
8896;DHT22;4484;48.928;10.066;2023-07-31T10:01:49;23.70;98.20
8896;DHT22;4484;48.928;10.066;2023-07-31T10:08:30;23.90;99.60
8896;DHT22;4484;48.928;10.066;2023-07-31T10:10:59;23.80;97.90
8896;DHT22;4484;48.928;10.066;2023-07-31T10:13:28;23.60;97.70
8896;DHT22;4484;48.928;10.066;2023-07-31T10:15:58;23.60;99.10
8896;DHT22;4484;48.928;10.066;2023-07-31T10:18:26;23.90;98.90
8896;DHT22;4484;48.928;10.066;2023-07-31T10:20:55;24.20;98.40
8896;DHT22;4484;48.928;10.066;2023-07-31T10:23:23;24.10;97.10
8896;DHT22;4484;48.928;10.066;2023-07-31T10:25:53;24.00;98.30
8896;DHT22;4484;48.928;10.066;2023-07-31T10:28:21;23.90;98.00
8896;DHT22;4484;48.928;10.066;2023-07-31T10:30:49;24.00;97.30
8896;DHT22;4484;48.928;10.066;2023-07-31T10:33:18;23.90;98.30
8896;DHT22;4484;48.928;10.066;2023-07-31T10:35:50;24.10;97.10
8896;DHT22;4484;48.928;10.066;2023-07-31T10:38:20;24.10;98.40
8896;DHT22;4484;48.928;10.066;2023-07-31T10:40:50;24.20;98.20
8896;DHT22;4484;48.928;10.066;2023-07-31T10:43:26;24.30;98.30
8896;DHT22;4484;48.928;10.066;2023-07-31T10:45:54;24.80;97.30
8896;DHT22;4484;48.928;10.066;2023-07-31T10:48:21;25.10;95.30
8896;DHT22;4484;48.928;10.066;2023-07-31T10:50:51;25.40;97.70
8896;DHT22;4484;48.928;10.066;2023-07-31T10:53:26;25.80;94.80
8896;DHT22;4484;48.928;10.066;2023-07-31T10:55:58;25.70;93.70
8896;DHT22;4484;48.928;10.066;2023-07-31T10:58:25;25.40;94.80
8896;DHT22;4484;48.928;10.066;2023-07-31T11:00:56;24.80;93.80
8896;DHT22;4484;48.928;10.066;2023-07-31T11:06:09;25.20;94.90
8896;DHT22;4484;48.928;10.066;2023-07-31T11:08:42;25.40;94.90
8896;DHT22;4484;48.928;10.066;2023-07-31T11:11:17;25.40;93.30
8896;DHT22;4484;48.928;10.066;2023-07-31T11:13:49;25.10;95.00
8896;DHT22;4484;48.928;10.066;2023-07-31T11:16:18;24.80;95.00
8896;DHT22;4484;48.928;10.066;2023-07-31T11:18:47;24.60;95.40
8896;DHT22;4484;48.928;10.066;2023-07-31T11:21:16;24.50;94.70
8896;DHT22;4484;48.928;10.066;2023-07-31T11:23:51;24.70;96.10
8896;DHT22;4484;48.928;10.066;2023-07-31T11:26:19;24.90;93.60
8896;DHT22;4484;48.928;10.066;2023-07-31T11:28:47;24.70;94.90
8896;DHT22;4484;48.928;10.066;2023-07-31T11:31:15;24.60;94.90
8896;DHT22;4484;48.928;10.066;2023-07-31T11:33:42;24.50;95.00
8896;DHT22;4484;48.928;10.066;2023-07-31T11:36:19;24.30;94.70
8896;DHT22;4484;48.928;10.066;2023-07-31T11:38:47;24.80;95.70
8896;DHT22;4484;48.928;10.066;2023-07-31T11:41:15;25.00;96.00
8896;DHT22;4484;48.928;10.066;2023-07-31T11:43:46;25.00;95.60
8896;DHT22;4484;48.928;10.066;2023-07-31T11:46:14;24.90;94.90
8896;DHT22;4484;48.928;10.066;2023-07-31T11:48:42;24.80;94.10
8896;DHT22;4484;48.928;10.066;2023-07-31T11:51:11;24.60;94.10
8896;DHT22;4484;48.928;10.066;2023-07-31T11:53:45;24.10;95.30
8896;DHT22;4484;48.928;10.066;2023-07-31T11:56:14;23.80;95.00
8896;DHT22;4484;48.928;10.066;2023-07-31T11:58:48;23.60;96.50
8896;DHT22;4484;48.928;10.066;2023-07-31T12:01:18;23.60;97.30
8896;DHT22;4484;48.928;10.066;2023-07-31T12:03:46;23.80;96.60
8896;DHT22;4484;48.928;10.066;2023-07-31T12:06:14;23.90;96.10
8896;DHT22;4484;48.928;10.066;2023-07-31T12:08:40;24.10;96.10
8896;DHT22;4484;48.928;10.066;2023-07-31T12:11:08;24.20;94.60
8896;DHT22;4484;48.928;10.066;2023-07-31T12:13:40;24.60;95.60
8896;DHT22;4484;48.928;10.066;2023-07-31T12:16:07;24.80;94.30
8896;DHT22;4484;48.928;10.066;2023-07-31T12:18:36;24.90;95.20
8896;DHT22;4484;48.928;10.066;2023-07-31T12:21:08;24.90;94.20
8896;DHT22;4484;48.928;10.066;2023-07-31T12:23:36;24.90;94.50
8896;DHT22;4484;48.928;10.066;2023-07-31T12:26:14;25.00;95.70
8896;DHT22;4484;48.928;10.066;2023-07-31T12:28:46;25.00;93.60
8896;DHT22;4484;48.928;10.066;2023-07-31T12:31:22;24.90;94.30
8896;DHT22;4484;48.928;10.066;2023-07-31T12:33:50;24.70;93.90
8896;DHT22;4484;48.928;10.066;2023-07-31T12:36:22;24.40;94.00
8896;DHT22;4484;48.928;10.066;2023-07-31T12:38:50;24.30;95.00
8896;DHT22;4484;48.928;10.066;2023-07-31T12:41:18;24.10;94.50
8896;DHT22;4484;48.928;10.066;2023-07-31T12:43:45;24.00;94.30
8896;DHT22;4484;48.928;10.066;2023-07-31T12:46:12;23.70;94.90
8896;DHT22;4484;48.928;10.066;2023-07-31T12:48:40;23.60;95.60
8896;DHT22;4484;48.928;10.066;2023-07-31T12:51:07;23.60;96.20
8896;DHT22;4484;48.928;10.066;2023-07-31T12:53:35;23.70;95.60
8896;DHT22;4484;48.928;10.066;2023-07-31T12:56:02;23.70;95.70
8896;DHT22;4484;48.928;10.066;2023-07-31T12:58:29;23.90;97.40
8896;DHT22;4484;48.928;10.066;2023-07-31T13:00:56;24.30;95.70
8896;DHT22;4484;48.928;10.066;2023-07-31T13:03:23;24.30;95.10
8896;DHT22;4484;48.928;10.066;2023-07-31T13:05:50;24.40;94.00
8896;DHT22;4484;48.928;10.066;2023-07-31T13:08:19;24.60;95.60
8896;DHT22;4484;48.928;10.066;2023-07-31T13:10:46;24.70;94.50
8896;DHT22;4484;48.928;10.066;2023-07-31T13:13:13;24.90;95.40
8896;DHT22;4484;48.928;10.066;2023-07-31T13:15:40;25.30;94.60
8896;DHT22;4484;48.928;10.066;2023-07-31T13:18:07;25.40;94.60
8896;DHT22;4484;48.928;10.066;2023-07-31T13:20:34;25.60;93.20
8896;DHT22;4484;48.928;10.066;2023-07-31T13:23:00;25.40;92.50
8896;DHT22;4484;48.928;10.066;2023-07-31T13:25:27;25.10;92.90
8896;DHT22;4484;48.928;10.066;2023-07-31T13:27:55;24.80;94.20
8896;DHT22;4484;48.928;10.066;2023-07-31T13:30:22;24.50;93.80
8896;DHT22;4484;48.928;10.066;2023-07-31T13:32:49;24.30;95.00
8896;DHT22;4484;48.928;10.066;2023-07-31T13:35:16;24.30;94.10
8896;DHT22;4484;48.928;10.066;2023-07-31T13:37:43;24.20;94.50
8896;DHT22;4484;48.928;10.066;2023-07-31T13:40:10;24.30;94.70
8896;DHT22;4484;48.928;10.066;2023-07-31T13:42:37;24.40;95.40
8896;DHT22;4484;48.928;10.066;2023-07-31T13:45:05;24.40;94.30
8896;DHT22;4484;48.928;10.066;2023-07-31T13:47:33;24.60;94.10
8896;DHT22;4484;48.928;10.066;2023-07-31T13:50:01;24.80;94.50
8896;DHT22;4484;48.928;10.066;2023-07-31T13:52:28;24.70;94.50
8896;DHT22;4484;48.928;10.066;2023-07-31T13:54:55;24.50;94.70
8896;DHT22;4484;48.928;10.066;2023-07-31T13:57:22;24.30;94.60
8896;DHT22;4484;48.928;10.066;2023-07-31T13:59:50;24.00;94.20
8896;DHT22;4484;48.928;10.066;2023-07-31T14:02:17;23.80;95.20
8896;DHT22;4484;48.928;10.066;2023-07-31T14:04:44;23.60;95.10
8896;DHT22;4484;48.928;10.066;2023-07-31T14:07:11;23.40;95.30
8896;DHT22;4484;48.928;10.066;2023-07-31T14:09:38;23.40;95.80
8896;DHT22;4484;48.928;10.066;2023-07-31T14:12:05;23.30;95.40
8896;DHT22;4484;48.928;10.066;2023-07-31T14:14:32;23.10;95.80
8896;DHT22;4484;48.928;10.066;2023-07-31T14:17:01;23.00;95.30
8896;DHT22;4484;48.928;10.066;2023-07-31T14:19:28;22.70;96.10
8896;DHT22;4484;48.928;10.066;2023-07-31T14:21:58;22.60;95.90
8896;DHT22;4484;48.928;10.066;2023-07-31T14:24:37;22.40;96.40
8896;DHT22;4484;48.928;10.066;2023-07-31T14:27:04;22.30;97.30
8896;DHT22;4484;48.928;10.066;2023-07-31T14:29:31;22.20;97.50
8896;DHT22;4484;48.928;10.066;2023-07-31T14:31:58;22.00;98.10
8896;DHT22;4484;48.928;10.066;2023-07-31T14:34:26;22.00;98.20
8896;DHT22;4484;48.928;10.066;2023-07-31T14:36:53;21.90;98.40
8896;DHT22;4484;48.928;10.066;2023-07-31T14:39:20;21.80;99.20
8896;DHT22;4484;48.928;10.066;2023-07-31T14:41:46;21.90;99.10
8896;DHT22;4484;48.928;10.066;2023-07-31T14:44:14;22.00;98.30
8896;DHT22;4484;48.928;10.066;2023-07-31T14:46:41;22.10;99.10
8896;DHT22;4484;48.928;10.066;2023-07-31T14:49:09;22.20;97.50
8896;DHT22;4484;48.928;10.066;2023-07-31T14:51:36;22.10;98.50
8896;DHT22;4484;48.928;10.066;2023-07-31T14:54:03;22.20;97.90
8896;DHT22;4484;48.928;10.066;2023-07-31T14:56:30;22.20;97.70
8896;DHT22;4484;48.928;10.066;2023-07-31T14:58:57;22.20;98.40
8896;DHT22;4484;48.928;10.066;2023-07-31T15:01:24;22.30;98.00
8896;DHT22;4484;48.928;10.066;2023-07-31T15:03:51;22.30;97.50
8896;DHT22;4484;48.928;10.066;2023-07-31T15:06:18;22.40;97.60
8896;DHT22;4484;48.928;10.066;2023-07-31T15:08:45;22.50;97.80
8896;DHT22;4484;48.928;10.066;2023-07-31T15:11:12;22.50;97.40
8896;DHT22;4484;48.928;10.066;2023-07-31T15:13:39;22.60;97.80
8896;DHT22;4484;48.928;10.066;2023-07-31T15:16:06;22.90;98.40
8896;DHT22;4484;48.928;10.066;2023-07-31T15:18:33;23.00;97.00
8896;DHT22;4484;48.928;10.066;2023-07-31T15:21:00;23.10;98.10
8896;DHT22;4484;48.928;10.066;2023-07-31T15:23:27;23.20;97.00
8896;DHT22;4484;48.928;10.066;2023-07-31T15:25:54;23.10;96.50
8896;DHT22;4484;48.928;10.066;2023-07-31T15:28:21;23.00;97.20
8896;DHT22;4484;48.928;10.066;2023-07-31T15:30:48;22.90;98.20
8896;DHT22;4484;48.928;10.066;2023-07-31T15:33:15;22.90;96.90
8896;DHT22;4484;48.928;10.066;2023-07-31T15:35:42;22.90;97.90
8896;DHT22;4484;48.928;10.066;2023-07-31T15:38:09;22.90;97.60
8896;DHT22;4484;48.928;10.066;2023-07-31T15:40:37;22.80;97.30
8896;DHT22;4484;48.928;10.066;2023-07-31T15:43:04;22.80;98.30
8896;DHT22;4484;48.928;10.066;2023-07-31T15:45:31;22.80;97.20
8896;DHT22;4484;48.928;10.066;2023-07-31T15:47:58;22.80;97.70
8896;DHT22;4484;48.928;10.066;2023-07-31T15:50:25;22.80;97.70
8896;DHT22;4484;48.928;10.066;2023-07-31T15:52:52;22.80;98.40
8896;DHT22;4484;48.928;10.066;2023-07-31T15:55:19;22.80;98.30
8896;DHT22;4484;48.928;10.066;2023-07-31T15:57:46;22.90;97.90
8896;DHT22;4484;48.928;10.066;2023-07-31T16:00:13;22.90;98.10
8896;DHT22;4484;48.928;10.066;2023-07-31T16:02:39;23.00;97.40
8896;DHT22;4484;48.928;10.066;2023-07-31T16:05:07;22.90;97.00